createdAt,value
2018-11-21T00:00:00.789Z,15.8
2018-11-21T00:10:00.797Z,16.0
2018-11-21T00:15:00.790Z,15.8
2018-11-21T00:20:00.807Z,15.2
2018-11-21T00:25:00.815Z,14.6
2018-11-21T00:30:00.809Z,14.0
2018-11-21T00:35:00.816Z,14.3
2018-11-21T00:40:00.811Z,14.2
2018-11-21T00:45:00.965Z,15.0
2018-11-21T00:50:01.466Z,15.0
2018-11-21T00:55:00.779Z,15.6
2018-11-21T01:00:00.785Z,15.4
2018-11-21T01:05:00.786Z,16.6
2018-11-21T01:10:00.781Z,16.2
2018-11-21T01:15:00.783Z,16.1
2018-11-21T01:20:00.787Z,16.0
2018-11-21T01:25:00.786Z,16.2
2018-11-21T01:30:00.814Z,16.3
2018-11-21T01:35:00.841Z,16.6
2018-11-21T01:40:00.791Z,17.6
2018-11-21T01:45:00.794Z,18.7
2018-11-21T01:50:00.798Z,18.8
2018-11-21T01:55:01.040Z,18.8
2018-11-21T02:00:00.805Z,19.2
2018-11-21T02:05:00.802Z,19.4
2018-11-21T02:10:00.806Z,19.5
2018-11-21T02:15:01.835Z,19.3
2018-11-21T02:20:00.814Z,18.6
2018-11-21T02:25:01.022Z,19.1
2018-11-21T02:30:00.820Z,19.7
2018-11-21T02:35:00.820Z,19.6
2018-11-21T02:40:00.822Z,20.6
2018-11-21T02:45:00.822Z,21.8
2018-11-21T02:50:00.829Z,21.5
2018-11-21T02:55:00.851Z,21.2
2018-11-21T03:00:01.051Z,22.5
2018-11-21T03:05:02.305Z,22.4
2018-11-21T03:10:00.840Z,22.3
2018-11-21T03:15:00.840Z,22.6
2018-11-21T03:20:00.831Z,23.0
2018-11-21T03:25:00.831Z,22.0
2018-11-21T03:30:00.840Z,23.1
2018-11-21T03:35:00.843Z,23.0
2018-11-21T03:40:00.911Z,23.1
2018-11-21T03:45:00.848Z,23.2
2018-11-21T03:50:00.877Z,23.6
2018-11-21T03:55:00.849Z,22.8
2018-11-21T04:00:00.849Z,23.9
2018-11-21T04:05:01.201Z,24.9
2018-11-21T04:10:00.997Z,26.0
2018-11-21T04:15:00.860Z,26.1
2018-11-21T04:20:00.856Z,27.8
2018-11-21T04:25:00.851Z,27.8
2018-11-21T04:30:00.862Z,27.0
2018-11-21T04:40:01.185Z,27.2
2018-11-21T04:45:00.866Z,25.8
2018-11-21T04:50:00.858Z,24.1
2018-11-21T04:55:00.879Z,24.4
2018-11-21T05:00:00.865Z,23.2
2018-11-21T05:05:00.869Z,22.7
2018-11-21T05:10:00.866Z,22.8
2018-11-21T05:15:00.942Z,23.2
2018-11-21T05:20:00.878Z,23.0
2018-11-21T05:25:00.871Z,23.3
2018-11-21T05:30:00.876Z,23.2
2018-11-21T05:35:00.908Z,21.6
2018-11-21T05:45:00.859Z,21.7
2018-11-21T05:50:00.889Z,22.0
2018-11-21T05:55:00.899Z,22.0
2018-11-21T06:00:00.876Z,23.0
2018-11-21T06:05:01.309Z,22.8
2018-11-21T06:10:00.900Z,22.2
2018-11-21T06:15:01.001Z,22.2
2018-11-21T06:20:00.883Z,21.2
2018-11-21T06:25:00.901Z,21.5
2018-11-21T06:30:00.881Z,21.1
2018-11-21T06:35:01.325Z,20.3
2018-11-21T06:40:02.350Z,19.6
2018-11-21T06:45:00.918Z,19.5
2018-11-21T06:50:00.918Z,18.6
2018-11-21T07:00:00.913Z,19.9
2018-11-21T07:05:00.985Z,20.2
2018-11-21T07:10:02.336Z,21.3
2018-11-21T07:15:00.926Z,21.2
2018-11-21T07:20:00.894Z,20.5
2018-11-21T07:25:00.921Z,19.9
2018-11-21T07:30:00.984Z,19.4
2018-11-21T07:35:00.970Z,19.0
2018-11-21T07:40:03.346Z,19.2
2018-11-21T07:45:00.970Z,19.7
2018-11-21T07:50:00.968Z,20.0
2018-11-21T07:55:00.975Z,19.3
2018-11-21T08:00:00.979Z,18.3
2018-11-21T08:10:00.679Z,19.0
2018-11-21T08:15:00.604Z,17.8
2018-11-21T08:20:00.741Z,18.2
2018-11-21T08:25:00.610Z,17.9
2018-11-21T08:30:00.599Z,17.9
2018-11-21T08:35:00.833Z,17.6
2018-11-21T08:45:00.647Z,17.1
2018-11-21T08:55:00.616Z,15.6
2018-11-21T09:00:00.645Z,15.4
2018-11-21T09:10:00.659Z,14.8
2018-11-21T09:15:00.703Z,15.1
2018-11-21T09:20:00.708Z,15.4
2018-11-21T09:25:00.661Z,15.4
2018-11-21T09:30:00.605Z,14.9
2018-11-21T09:35:00.642Z,14.8
2018-11-21T09:40:00.644Z,14.9
2018-11-21T09:45:00.647Z,14.8
2018-11-21T09:50:00.643Z,14.8
2018-11-21T09:55:00.988Z,14.4
2018-11-21T10:00:00.634Z,14.4
2018-11-21T10:05:00.958Z,14.2
2018-11-21T10:10:00.891Z,14.2
2018-11-21T10:15:00.658Z,13.7
2018-11-21T10:20:00.655Z,13.9
2018-11-21T10:25:00.659Z,14.0
2018-11-21T10:30:00.662Z,14.3
2018-11-21T10:35:00.663Z,14.3
2018-11-21T10:40:00.653Z,14.5
2018-11-21T10:45:00.672Z,14.7
2018-11-21T10:50:00.662Z,14.0
2018-11-21T10:55:00.678Z,12.9
2018-11-21T11:00:00.675Z,12.8
2018-11-21T11:05:00.669Z,12.7
2018-11-21T11:10:00.672Z,13.0
2018-11-21T11:15:00.682Z,13.5
2018-11-21T11:20:00.682Z,14.0
2018-11-21T11:25:01.326Z,13.5
2018-11-21T11:30:02.262Z,13.5
2018-11-21T11:35:00.681Z,12.6
2018-11-21T11:40:00.655Z,12.4
2018-11-21T11:45:00.708Z,12.2
2018-11-21T11:50:00.689Z,12.2
2018-11-21T12:00:00.790Z,12.4
2018-11-21T12:05:00.790Z,12.3
2018-11-21T12:10:00.731Z,12.4
2018-11-21T12:15:00.734Z,12.8
2018-11-21T12:20:00.757Z,12.4
2018-11-21T12:30:00.705Z,11.8
2018-11-21T12:35:02.396Z,11.1
2018-11-21T12:40:00.718Z,10.7
2018-11-21T12:45:00.715Z,10.7
2018-11-21T12:55:00.750Z,11.6
2018-11-21T13:00:01.315Z,11.5
2018-11-21T13:10:00.723Z,11.5
2018-11-21T13:15:00.731Z,11.2
2018-11-21T13:20:00.695Z,10.3
2018-11-21T13:25:00.734Z,9.9
2018-11-21T13:30:00.739Z,10.3
2018-11-21T13:35:00.739Z,9.9
2018-11-21T13:40:00.733Z,9.4
2018-11-21T13:45:00.739Z,9.2
2018-11-21T13:50:00.745Z,9.2
2018-11-21T13:55:00.742Z,8.6
2018-11-21T14:00:00.753Z,8.4
2018-11-21T14:05:01.351Z,8.4
2018-11-21T14:15:00.808Z,8.3
2018-11-21T14:20:00.742Z,7.9
2018-11-21T14:25:00.757Z,7.9
2018-11-21T14:30:00.758Z,8.0
2018-11-21T14:35:00.749Z,8.2
2018-11-21T14:40:00.762Z,8.3
2018-11-21T14:45:00.768Z,8.2
2018-11-21T14:50:00.760Z,8.2
2018-11-21T14:55:00.768Z,8.1
2018-11-21T15:00:00.807Z,7.7
2018-11-21T15:05:00.769Z,7.6
2018-11-21T15:10:00.968Z,7.6
2018-11-21T15:15:00.831Z,7.6
2018-11-21T15:20:01.346Z,7.8
2018-11-21T15:25:00.774Z,8.2
2018-11-21T15:30:00.771Z,9.1
2018-11-21T15:40:00.782Z,9.7
2018-11-21T15:45:00.836Z,9.9
2018-11-21T15:50:00.785Z,9.9
2018-11-21T15:55:00.781Z,9.7
2018-11-21T16:00:00.786Z,10.3
2018-11-21T16:05:00.787Z,10.0
2018-11-21T16:10:00.787Z,9.8
2018-11-21T16:15:00.797Z,9.6
2018-11-21T16:20:00.790Z,9.4
2018-11-21T16:25:00.854Z,9.8
2018-11-21T16:30:00.835Z,10.0
2018-11-21T16:35:00.841Z,10.4
2018-11-21T16:40:00.826Z,11.1
2018-11-21T16:45:03.382Z,11.4
2018-11-21T16:50:01.075Z,11.0
2018-11-21T16:55:00.847Z,11.2
2018-11-21T17:00:00.847Z,11.3
2018-11-21T17:05:00.865Z,10.9
2018-11-21T17:10:00.819Z,11.2
2018-11-21T17:15:00.881Z,10.8
2018-11-21T17:20:00.824Z,10.6
2018-11-21T17:25:01.338Z,10.5
2018-11-21T17:30:02.401Z,10.3
2018-11-21T17:35:00.824Z,10.4
2018-11-21T17:40:00.821Z,10.6
2018-11-21T17:45:00.844Z,10.8
2018-11-21T17:50:00.856Z,10.8
2018-11-21T17:55:00.857Z,11.2
2018-11-21T18:00:00.838Z,11.0
2018-11-21T18:05:00.861Z,11.1
2018-11-21T18:10:00.857Z,11.5
2018-11-21T18:15:00.835Z,12.2
2018-11-21T18:20:00.864Z,12.2
2018-11-21T18:25:00.866Z,12.0
2018-11-21T18:30:01.628Z,11.9
2018-11-21T18:35:00.849Z,11.8
2018-11-21T18:40:00.844Z,12.0
2018-11-21T18:45:00.852Z,12.3
2018-11-21T18:50:00.845Z,12.6
2018-11-21T18:55:01.355Z,13.0
2018-11-21T19:00:00.881Z,13.8
2018-11-21T19:05:00.880Z,14.9
2018-11-21T19:10:00.885Z,16.5
2018-11-21T19:15:00.889Z,17.4
2018-11-21T19:20:00.889Z,18.9
2018-11-21T19:25:00.892Z,19.5
2018-11-21T19:30:01.055Z,19.8
2018-11-21T19:35:00.900Z,21.3
2018-11-21T19:40:01.977Z,22.7
2018-11-21T19:45:00.866Z,23.4
2018-11-21T19:50:00.879Z,23.7
2018-11-21T19:55:00.881Z,24.0
2018-11-21T20:00:01.060Z,23.1
2018-11-21T20:10:00.891Z,25.2
2018-11-21T20:15:00.883Z,26.0
2018-11-21T20:20:00.913Z,26.8
2018-11-21T20:25:00.911Z,27.0
2018-11-21T20:30:01.191Z,26.0
2018-11-21T20:35:01.735Z,25.2
2018-11-21T20:40:00.889Z,24.5
2018-11-21T20:45:00.895Z,24.0
2018-11-21T20:50:00.898Z,24.4
2018-11-21T21:00:00.899Z,24.3
2018-11-21T21:05:00.904Z,24.0
2018-11-21T21:10:00.902Z,24.6
2018-11-21T21:15:00.960Z,23.2
2018-11-21T21:20:00.901Z,21.9
2018-11-21T21:25:01.942Z,21.7
2018-11-21T21:30:00.949Z,21.4
2018-11-21T21:35:00.908Z,19.3
2018-11-21T21:40:00.918Z,19.7
2018-11-21T21:45:00.943Z,20.5
2018-11-21T21:50:00.915Z,20.3
2018-11-21T21:55:00.949Z,21.6
2018-11-21T22:00:01.401Z,22.3
2018-11-21T22:05:02.256Z,24.0
2018-11-21T22:10:00.933Z,24.7
2018-11-21T22:15:00.933Z,25.3
2018-11-21T22:20:00.956Z,25.0
2018-11-21T22:25:00.963Z,25.6
2018-11-21T22:30:01.053Z,23.9
2018-11-21T22:35:00.986Z,22.0
2018-11-21T22:40:01.348Z,21.1
2018-11-21T22:45:01.161Z,19.5
2018-11-21T22:50:00.970Z,18.0
2018-11-21T22:55:00.985Z,16.7
2018-11-21T23:00:00.975Z,15.5
2018-11-21T23:05:02.163Z,14.2
2018-11-21T23:10:00.978Z,13.8
2018-11-21T23:15:00.969Z,13.6
2018-11-21T23:20:00.981Z,13.2
2018-11-21T23:25:00.990Z,14.0
2018-11-21T23:30:05.974Z,14.2
2018-11-21T23:35:00.998Z,14.6
2018-11-21T23:40:01.319Z,14.9
2018-11-21T23:45:00.954Z,15.3
2018-11-21T23:50:00.966Z,15.0
